sensor_id;sensor_type;location;lat;lon;timestamp;pressure;altitude;pressure_sealevel;temperature;humidity
38452;BME280;24231;52.514;13.438;2023-04-07T00:02:03;101513.00;;;6.22;38.65
38452;BME280;24231;52.514;13.438;2023-04-07T00:04:30;101508.53;;;7.04;37.28
38452;BME280;24231;52.514;13.438;2023-04-07T00:06:57;101511.07;;;6.91;37.78
38452;BME280;24231;52.514;13.438;2023-04-07T00:09:24;101516.81;;;5.87;39.73
38452;BME280;24231;52.514;13.438;2023-04-07T00:11:52;101515.21;;;5.11;41.37
38452;BME280;24231;52.514;13.438;2023-04-07T00:14:19;101521.38;;;4.43;43.01
38452;BME280;24231;52.514;13.438;2023-04-07T00:16:46;101522.01;;;4.45;43.61
38452;BME280;24231;52.514;13.438;2023-04-07T00:19:13;101520.97;;;4.06;44.66
38452;BME280;24231;52.514;13.438;2023-04-07T00:21:41;101519.01;;;4.03;44.77
38452;BME280;24231;52.514;13.438;2023-04-07T00:24:09;101514.94;;;4.06;44.62
38452;BME280;24231;52.514;13.438;2023-04-07T00:26:36;101515.02;;;4.17;44.13
38452;BME280;24231;52.514;13.438;2023-04-07T00:29:03;101506.65;;;5.41;40.97
38452;BME280;24231;52.514;13.438;2023-04-07T00:31:31;101506.76;;;6.43;38.88
38452;BME280;24231;52.514;13.438;2023-04-07T00:33:57;101508.98;;;4.87;41.18
38452;BME280;24231;52.514;13.438;2023-04-07T00:36:24;101509.65;;;4.63;41.73
38452;BME280;24231;52.514;13.438;2023-04-07T00:38:52;101514.43;;;4.48;42.32
38452;BME280;24231;52.514;13.438;2023-04-07T00:41:19;101510.79;;;4.45;42.29
38452;BME280;24231;52.514;13.438;2023-04-07T00:43:46;101503.73;;;5.12;40.79
38452;BME280;24231;52.514;13.438;2023-04-07T00:46:13;101501.02;;;5.53;39.96
38452;BME280;24231;52.514;13.438;2023-04-07T00:48:41;101504.68;;;4.72;41.37
38452;BME280;24231;52.514;13.438;2023-04-07T00:51:08;101505.21;;;4.21;42.69
38452;BME280;24231;52.514;13.438;2023-04-07T00:53:35;101501.38;;;4.88;41.14
38452;BME280;24231;52.514;13.438;2023-04-07T00:56:03;101497.31;;;5.53;39.73
38452;BME280;24231;52.514;13.438;2023-04-07T00:58:30;101496.82;;;5.14;40.52
38452;BME280;24231;52.514;13.438;2023-04-07T01:01:03;101489.41;;;5.25;40.46
38452;BME280;24231;52.514;13.438;2023-04-07T01:03:38;101493.43;;;4.28;42.14
38452;BME280;24231;52.514;13.438;2023-04-07T01:06:07;101491.74;;;4.38;41.79
38452;BME280;24231;52.514;13.438;2023-04-07T01:08:41;101488.43;;;4.41;41.74
38452;BME280;24231;52.514;13.438;2023-04-07T01:11:19;101486.80;;;3.98;42.56
38452;BME280;24231;52.514;13.438;2023-04-07T01:13:50;101486.89;;;4.00;42.58
38452;BME280;24231;52.514;13.438;2023-04-07T01:16:31;101479.43;;;5.08;40.56
38452;BME280;24231;52.514;13.438;2023-04-07T01:19:15;101474.13;;;5.04;39.97
38452;BME280;24231;52.514;13.438;2023-04-07T01:21:52;101472.81;;;6.12;38.05
38452;BME280;24231;52.514;13.438;2023-04-07T01:24:47;101469.48;;;5.06;40.06
38452;BME280;24231;52.514;13.438;2023-04-07T01:27:32;101468.32;;;4.86;40.41
38452;BME280;24231;52.514;13.438;2023-04-07T01:30:02;101465.23;;;6.02;38.48
38452;BME280;24231;52.514;13.438;2023-04-07T01:32:31;101464.74;;;5.61;38.82
38452;BME280;24231;52.514;13.438;2023-04-07T01:35:02;101469.80;;;4.43;41.17
38452;BME280;24231;52.514;13.438;2023-04-07T01:37:31;101472.53;;;4.15;42.17
38452;BME280;24231;52.514;13.438;2023-04-07T01:39:59;101474.72;;;4.16;42.41
38452;BME280;24231;52.514;13.438;2023-04-07T01:42:26;101468.55;;;4.55;41.63
38452;BME280;24231;52.514;13.438;2023-04-07T01:44:55;101470.18;;;4.28;42.45
38452;BME280;24231;52.514;13.438;2023-04-07T01:47:23;101466.84;;;4.49;41.83
38452;BME280;24231;52.514;13.438;2023-04-07T01:49:51;101470.15;;;4.09;42.55
38452;BME280;24231;52.514;13.438;2023-04-07T01:52:20;101470.24;;;4.30;42.23
38452;BME280;24231;52.514;13.438;2023-04-07T01:54:53;101471.48;;;4.18;42.94
38452;BME280;24231;52.514;13.438;2023-04-07T01:57:21;101468.70;;;3.75;43.69
38452;BME280;24231;52.514;13.438;2023-04-07T01:59:48;101465.36;;;4.17;42.91
38452;BME280;24231;52.514;13.438;2023-04-07T02:02:16;101466.86;;;3.87;43.53
38452;BME280;24231;52.514;13.438;2023-04-07T02:04:48;101466.84;;;3.84;43.68
38452;BME280;24231;52.514;13.438;2023-04-07T02:07:21;101467.21;;;4.20;43.42
38452;BME280;24231;52.514;13.438;2023-04-07T02:09:54;101462.88;;;3.53;44.50
38452;BME280;24231;52.514;13.438;2023-04-07T02:12:23;101458.18;;;3.46;44.95
38452;BME280;24231;52.514;13.438;2023-04-07T02:14:53;101461.71;;;4.27;43.15
38452;BME280;24231;52.514;13.438;2023-04-07T02:17:21;101460.13;;;3.87;44.11
38452;BME280;24231;52.514;13.438;2023-04-07T02:19:50;101453.21;;;4.51;42.57
38452;BME280;24231;52.514;13.438;2023-04-07T02:22:18;101453.12;;;4.61;42.28
38452;BME280;24231;52.514;13.438;2023-04-07T02:24:44;101454.19;;;4.33;42.70
38452;BME280;24231;52.514;13.438;2023-04-07T02:27:12;101455.70;;;3.72;44.36
38452;BME280;24231;52.514;13.438;2023-04-07T02:29:39;101455.19;;;4.18;43.57
38452;BME280;24231;52.514;13.438;2023-04-07T02:32:06;101445.82;;;4.68;42.29
38452;BME280;24231;52.514;13.438;2023-04-07T02:34:36;101446.85;;;4.78;42.42
38452;BME280;24231;52.514;13.438;2023-04-07T02:37:03;101450.78;;;4.20;43.68
38452;BME280;24231;52.514;13.438;2023-04-07T02:39:31;101442.25;;;4.88;41.72
38452;BME280;24231;52.514;13.438;2023-04-07T02:41:58;101439.06;;;4.78;41.90
38452;BME280;24231;52.514;13.438;2023-04-07T02:44:26;101447.44;;;4.32;43.16
38452;BME280;24231;52.514;13.438;2023-04-07T02:46:54;101445.73;;;3.80;44.13
38452;BME280;24231;52.514;13.438;2023-04-07T02:49:21;101434.79;;;4.85;42.20
38452;BME280;24231;52.514;13.438;2023-04-07T02:51:48;101437.63;;;5.05;41.55
38452;BME280;24231;52.514;13.438;2023-04-07T02:54:15;101436.48;;;5.58;40.68
38452;BME280;24231;52.514;13.438;2023-04-07T02:56:43;101438.14;;;4.93;41.85
38452;BME280;24231;52.514;13.438;2023-04-07T02:59:10;101446.94;;;3.92;43.89
38452;BME280;24231;52.514;13.438;2023-04-07T03:01:37;101438.29;;;4.92;42.57
38452;BME280;24231;52.514;13.438;2023-04-07T03:04:04;101444.63;;;4.38;43.42
38452;BME280;24231;52.514;13.438;2023-04-07T03:06:32;101441.26;;;4.92;42.35
38452;BME280;24231;52.514;13.438;2023-04-07T03:08:58;101446.85;;;3.58;45.13
38452;BME280;24231;52.514;13.438;2023-04-07T03:11:25;101446.78;;;4.07;44.12
38452;BME280;24231;52.514;13.438;2023-04-07T03:13:53;101445.86;;;3.56;45.30
38452;BME280;24231;52.514;13.438;2023-04-07T03:16:20;101440.35;;;4.42;43.12
38452;BME280;24231;52.514;13.438;2023-04-07T03:18:48;101433.44;;;4.44;42.76
38452;BME280;24231;52.514;13.438;2023-04-07T03:21:15;101432.09;;;4.34;43.96
38452;BME280;24231;52.514;13.438;2023-04-07T03:23:43;101436.00;;;3.87;44.47
38452;BME280;24231;52.514;13.438;2023-04-07T03:26:10;101430.60;;;4.21;43.75
38452;BME280;24231;52.514;13.438;2023-04-07T03:28:51;101437.17;;;4.03;44.03
38452;BME280;24231;52.514;13.438;2023-04-07T03:31:18;101434.73;;;3.79;44.41
38452;BME280;24231;52.514;13.438;2023-04-07T03:33:46;101425.23;;;5.33;41.45
38452;BME280;24231;52.514;13.438;2023-04-07T03:36:13;101415.95;;;6.73;38.73
38452;BME280;24231;52.514;13.438;2023-04-07T03:38:40;101413.80;;;8.10;36.25
38452;BME280;24231;52.514;13.438;2023-04-07T03:41:07;101413.32;;;7.33;37.16
38452;BME280;24231;52.514;13.438;2023-04-07T03:43:39;101403.15;;;8.64;35.61
38452;BME280;24231;52.514;13.438;2023-04-07T03:46:06;101403.73;;;8.40;35.71
38452;BME280;24231;52.514;13.438;2023-04-07T03:48:34;101401.01;;;8.56;35.74
38452;BME280;24231;52.514;13.438;2023-04-07T03:51:01;101406.84;;;7.09;37.38
38452;BME280;24231;52.514;13.438;2023-04-07T03:53:29;101411.89;;;7.83;36.48
38452;BME280;24231;52.514;13.438;2023-04-07T03:55:56;101402.75;;;8.29;35.74
38452;BME280;24231;52.514;13.438;2023-04-07T03:58:23;101400.51;;;8.22;35.71
38452;BME280;24231;52.514;13.438;2023-04-07T04:00:50;101401.82;;;8.84;35.06
38452;BME280;24231;52.514;13.438;2023-04-07T04:03:28;101401.25;;;8.70;35.59
38452;BME280;24231;52.514;13.438;2023-04-07T04:05:55;101407.78;;;8.45;36.12
38452;BME280;24231;52.514;13.438;2023-04-07T04:08:22;101411.50;;;8.34;36.61
38452;BME280;24231;52.514;13.438;2023-04-07T04:10:49;101410.93;;;8.22;36.99
38452;BME280;24231;52.514;13.438;2023-04-07T04:13:17;101408.26;;;8.35;36.91
38452;BME280;24231;52.514;13.438;2023-04-07T04:15:43;101407.82;;;8.17;37.01
38452;BME280;24231;52.514;13.438;2023-04-07T04:18:11;101410.57;;;8.24;36.82
38452;BME280;24231;52.514;13.438;2023-04-07T04:20:38;101414.68;;;8.14;37.06
38452;BME280;24231;52.514;13.438;2023-04-07T04:23:06;101415.73;;;7.72;37.62
38452;BME280;24231;52.514;13.438;2023-04-07T04:25:33;101416.41;;;7.78;37.71
38452;BME280;24231;52.514;13.438;2023-04-07T04:28:00;101414.90;;;7.75;37.74
38452;BME280;24231;52.514;13.438;2023-04-07T04:30:28;101412.82;;;7.45;38.65
38452;BME280;24231;52.514;13.438;2023-04-07T04:32:55;101410.30;;;7.18;39.10
38452;BME280;24231;52.514;13.438;2023-04-07T04:35:22;101410.52;;;7.28;39.05
38452;BME280;24231;52.514;13.438;2023-04-07T04:37:48;101411.56;;;7.19;39.18
38452;BME280;24231;52.514;13.438;2023-04-07T04:40:15;101413.00;;;7.31;39.24
38452;BME280;24231;52.514;13.438;2023-04-07T04:42:43;101412.44;;;7.30;39.17
38452;BME280;24231;52.514;13.438;2023-04-07T04:45:10;101416.17;;;7.26;39.20
38452;BME280;24231;52.514;13.438;2023-04-07T04:47:38;101413.72;;;7.23;39.62
38452;BME280;24231;52.514;13.438;2023-04-07T04:50:08;101415.37;;;7.27;39.67
38452;BME280;24231;52.514;13.438;2023-04-07T04:52:36;101421.21;;;6.69;40.12
38452;BME280;24231;52.514;13.438;2023-04-07T04:55:03;101417.54;;;7.09;39.69
38452;BME280;24231;52.514;13.438;2023-04-07T04:57:30;101422.97;;;6.87;39.91
38452;BME280;24231;52.514;13.438;2023-04-07T04:59:57;101423.35;;;6.94;39.95
38452;BME280;24231;52.514;13.438;2023-04-07T05:02:24;101424.98;;;6.91;40.32
38452;BME280;24231;52.514;13.438;2023-04-07T05:05:01;101427.16;;;7.03;39.83
38452;BME280;24231;52.514;13.438;2023-04-07T05:07:28;101426.65;;;7.08;39.98
38452;BME280;24231;52.514;13.438;2023-04-07T05:09:56;101430.60;;;7.06;40.34
38452;BME280;24231;52.514;13.438;2023-04-07T05:12:22;101427.79;;;6.97;40.39
38452;BME280;24231;52.514;13.438;2023-04-07T05:14:49;101432.29;;;7.09;40.11
38452;BME280;24231;52.514;13.438;2023-04-07T05:17:17;101433.29;;;6.83;40.52
38452;BME280;24231;52.514;13.438;2023-04-07T05:19:44;101429.79;;;7.05;40.37
38452;BME280;24231;52.514;13.438;2023-04-07T05:22:11;101431.77;;;6.98;40.15
38452;BME280;24231;52.514;13.438;2023-04-07T05:24:38;101432.01;;;7.32;39.71
38452;BME280;24231;52.514;13.438;2023-04-07T05:27:05;101431.77;;;7.56;39.05
38452;BME280;24231;52.514;13.438;2023-04-07T05:29:32;101430.26;;;7.74;39.09
38452;BME280;24231;52.514;13.438;2023-04-07T05:32:00;101426.21;;;7.67;39.25
38452;BME280;24231;52.514;13.438;2023-04-07T05:34:27;101421.85;;;7.54;39.61
38452;BME280;24231;52.514;13.438;2023-04-07T05:36:55;101421.80;;;7.26;39.97
38452;BME280;24231;52.514;13.438;2023-04-07T05:39:22;101421.40;;;7.30;39.81
38452;BME280;24231;52.514;13.438;2023-04-07T05:41:50;101425.22;;;7.55;39.67
38452;BME280;24231;52.514;13.438;2023-04-07T05:44:17;101422.61;;;7.47;40.02
38452;BME280;24231;52.514;13.438;2023-04-07T05:46:44;101419.48;;;7.27;40.39
38452;BME280;24231;52.514;13.438;2023-04-07T05:49:11;101418.83;;;7.60;40.09
38452;BME280;24231;52.514;13.438;2023-04-07T05:51:38;101419.20;;;7.66;39.76
38452;BME280;24231;52.514;13.438;2023-04-07T05:54:05;101418.32;;;7.76;39.77
38452;BME280;24231;52.514;13.438;2023-04-07T05:56:32;101420.99;;;7.79;39.98
38452;BME280;24231;52.514;13.438;2023-04-07T05:58:59;101421.11;;;7.52;40.26
38452;BME280;24231;52.514;13.438;2023-04-07T06:01:27;101425.59;;;7.21;40.68
38452;BME280;24231;52.514;13.438;2023-04-07T06:03:56;101427.75;;;7.45;40.80
38452;BME280;24231;52.514;13.438;2023-04-07T06:06:23;101429.77;;;7.00;41.54
38452;BME280;24231;52.514;13.438;2023-04-07T06:08:50;101434.49;;;7.08;41.76
38452;BME280;24231;52.514;13.438;2023-04-07T06:11:18;101438.91;;;7.21;41.65
38452;BME280;24231;52.514;13.438;2023-04-07T06:13:45;101439.80;;;6.37;43.18
38452;BME280;24231;52.514;13.438;2023-04-07T06:16:12;101434.21;;;6.61;42.87
38452;BME280;24231;52.514;13.438;2023-04-07T06:18:39;101434.73;;;7.06;42.08
38452;BME280;24231;52.514;13.438;2023-04-07T06:21:17;101433.86;;;6.99;42.10
38452;BME280;24231;52.514;13.438;2023-04-07T06:23:44;101436.38;;;7.31;41.38
38452;BME280;24231;52.514;13.438;2023-04-07T06:26:11;101439.99;;;7.40;41.43
38452;BME280;24231;52.514;13.438;2023-04-07T06:28:39;101446.23;;;7.38;41.82
38452;BME280;24231;52.514;13.438;2023-04-07T06:31:07;101448.59;;;7.63;41.15
38452;BME280;24231;52.514;13.438;2023-04-07T06:33:34;101448.40;;;7.49;41.55
38452;BME280;24231;52.514;13.438;2023-04-07T06:36:01;101450.27;;;7.53;41.54
38452;BME280;24231;52.514;13.438;2023-04-07T06:38:28;101452.08;;;7.24;41.91
38452;BME280;24231;52.514;13.438;2023-04-07T06:40:55;101452.15;;;7.66;41.48
38452;BME280;24231;52.514;13.438;2023-04-07T06:43:23;101450.60;;;7.56;41.93
38452;BME280;24231;52.514;13.438;2023-04-07T06:45:50;101452.79;;;7.77;41.95
38452;BME280;24231;52.514;13.438;2023-04-07T06:48:29;101452.17;;;7.83;41.77
38452;BME280;24231;52.514;13.438;2023-04-07T06:50:56;101449.98;;;7.80;41.76
38452;BME280;24231;52.514;13.438;2023-04-07T06:53:24;101451.87;;;8.00;41.40
38452;BME280;24231;52.514;13.438;2023-04-07T06:56:01;101455.67;;;7.90;41.58
38452;BME280;24231;52.514;13.438;2023-04-07T06:58:28;101455.20;;;8.11;41.48
38452;BME280;24231;52.514;13.438;2023-04-07T07:00:55;101455.04;;;8.25;41.03
38452;BME280;24231;52.514;13.438;2023-04-07T07:03:22;101455.29;;;8.41;41.17
38452;BME280;24231;52.514;13.438;2023-04-07T07:05:49;101450.52;;;8.60;40.67
38452;BME280;24231;52.514;13.438;2023-04-07T07:08:16;101454.25;;;8.24;41.30
38452;BME280;24231;52.514;13.438;2023-04-07T07:10:44;101457.07;;;8.15;41.35
38452;BME280;24231;52.514;13.438;2023-04-07T07:13:11;101461.09;;;7.98;42.29
38452;BME280;24231;52.514;13.438;2023-04-07T07:15:39;101459.09;;;8.28;41.38
38452;BME280;24231;52.514;13.438;2023-04-07T07:18:06;101457.37;;;8.55;40.97
38452;BME280;24231;52.514;13.438;2023-04-07T07:20:33;101455.45;;;8.85;40.03
38452;BME280;24231;52.514;13.438;2023-04-07T07:23:00;101456.36;;;8.90;39.98
38452;BME280;24231;52.514;13.438;2023-04-07T07:25:28;101457.26;;;9.30;39.11
38452;BME280;24231;52.514;13.438;2023-04-07T07:27:55;101458.53;;;9.52;38.78
38452;BME280;24231;52.514;13.438;2023-04-07T07:30:23;101458.42;;;9.14;39.37
38452;BME280;24231;52.514;13.438;2023-04-07T07:32:51;101460.68;;;9.45;38.89
38452;BME280;24231;52.514;13.438;2023-04-07T07:35:20;101460.14;;;9.64;38.84
38452;BME280;24231;52.514;13.438;2023-04-07T07:37:48;101461.83;;;9.38;38.97
38452;BME280;24231;52.514;13.438;2023-04-07T07:40:15;101462.75;;;9.53;38.61
38452;BME280;24231;52.514;13.438;2023-04-07T07:42:44;101463.32;;;9.40;38.49
38452;BME280;24231;52.514;13.438;2023-04-07T07:45:12;101461.60;;;9.36;38.72
38452;BME280;24231;52.514;13.438;2023-04-07T07:47:40;101461.44;;;9.64;38.00
38452;BME280;24231;52.514;13.438;2023-04-07T07:50:07;101462.79;;;9.29;38.63
38452;BME280;24231;52.514;13.438;2023-04-07T07:52:34;101467.64;;;8.58;39.41
38452;BME280;24231;52.514;13.438;2023-04-07T07:55:02;101464.36;;;9.37;37.40
38452;BME280;24231;52.514;13.438;2023-04-07T07:57:29;101468.59;;;8.93;37.61
38452;BME280;24231;52.514;13.438;2023-04-07T07:59:57;101467.62;;;8.99;37.17
38452;BME280;24231;52.514;13.438;2023-04-07T08:02:24;101466.90;;;9.47;36.07
38452;BME280;24231;52.514;13.438;2023-04-07T08:04:51;101469.73;;;9.36;35.99
38452;BME280;24231;52.514;13.438;2023-04-07T08:07:19;101472.07;;;9.44;35.44
38452;BME280;24231;52.514;13.438;2023-04-07T08:09:46;101470.92;;;9.83;34.69
38452;BME280;24231;52.514;13.438;2023-04-07T08:12:14;101475.74;;;9.67;34.75
38452;BME280;24231;52.514;13.438;2023-04-07T08:14:41;101478.77;;;9.09;35.27
38452;BME280;24231;52.514;13.438;2023-04-07T08:17:08;101484.61;;;9.12;35.60
38452;BME280;24231;52.514;13.438;2023-04-07T08:19:36;101482.98;;;8.58;36.35
38452;BME280;24231;52.514;13.438;2023-04-07T08:22:04;101480.23;;;9.40;35.26
38452;BME280;24231;52.514;13.438;2023-04-07T08:24:33;101476.35;;;9.48;34.68
38452;BME280;24231;52.514;13.438;2023-04-07T08:27:00;101475.73;;;10.19;33.83
38452;BME280;24231;52.514;13.438;2023-04-07T08:29:27;101474.94;;;10.32;32.95
38452;BME280;24231;52.514;13.438;2023-04-07T08:31:54;101475.83;;;9.51;34.05
38452;BME280;24231;52.514;13.438;2023-04-07T08:34:21;101472.51;;;9.88;32.68
38452;BME280;24231;52.514;13.438;2023-04-07T08:36:48;101476.31;;;10.05;32.04
38452;BME280;24231;52.514;13.438;2023-04-07T08:39:16;101473.62;;;9.45;32.06
38452;BME280;24231;52.514;13.438;2023-04-07T08:41:43;101476.30;;;10.34;31.56
38452;BME280;24231;52.514;13.438;2023-04-07T08:44:14;101475.05;;;10.23;32.51
38452;BME280;24231;52.514;13.438;2023-04-07T08:46:41;101477.13;;;10.26;32.80
38452;BME280;24231;52.514;13.438;2023-04-07T08:49:10;101479.72;;;10.13;32.92
38452;BME280;24231;52.514;13.438;2023-04-07T08:51:42;101483.62;;;9.17;34.45
38452;BME280;24231;52.514;13.438;2023-04-07T08:54:12;101491.93;;;9.49;34.11
38452;BME280;24231;52.514;13.438;2023-04-07T08:56:41;101494.73;;;8.93;35.11
38452;BME280;24231;52.514;13.438;2023-04-07T08:59:11;101496.03;;;8.93;34.92
38452;BME280;24231;52.514;13.438;2023-04-07T09:01:38;101500.27;;;9.16;34.75
38452;BME280;24231;52.514;13.438;2023-04-07T09:04:07;101498.10;;;9.35;34.47
38452;BME280;24231;52.514;13.438;2023-04-07T09:06:36;101503.81;;;9.77;33.12
38452;BME280;24231;52.514;13.438;2023-04-07T09:09:04;101502.57;;;9.51;32.73
38452;BME280;24231;52.514;13.438;2023-04-07T09:11:36;101503.10;;;9.30;32.79
38452;BME280;24231;52.514;13.438;2023-04-07T09:14:03;101501.56;;;8.99;32.81
38452;BME280;24231;52.514;13.438;2023-04-07T09:16:31;101502.31;;;8.65;31.98
38452;BME280;24231;52.514;13.438;2023-04-07T09:18:58;101500.07;;;9.55;31.25
38452;BME280;24231;52.514;13.438;2023-04-07T09:21:25;101498.59;;;8.89;32.76
38452;BME280;24231;52.514;13.438;2023-04-07T09:23:52;101503.20;;;8.68;33.59
38452;BME280;24231;52.514;13.438;2023-04-07T09:26:22;101504.26;;;8.91;34.21
38452;BME280;24231;52.514;13.438;2023-04-07T09:28:52;101511.31;;;7.65;35.32
38452;BME280;24231;52.514;13.438;2023-04-07T09:31:20;101515.44;;;8.21;34.58
38452;BME280;24231;52.514;13.438;2023-04-07T09:33:48;101507.25;;;9.03;33.30
38452;BME280;24231;52.514;13.438;2023-04-07T09:36:15;101509.52;;;8.77;33.62
38452;BME280;24231;52.514;13.438;2023-04-07T09:38:44;101513.83;;;8.64;33.70
38452;BME280;24231;52.514;13.438;2023-04-07T09:41:12;101511.86;;;8.98;33.10
38452;BME280;24231;52.514;13.438;2023-04-07T09:43:40;101510.80;;;9.00;32.40
38452;BME280;24231;52.514;13.438;2023-04-07T09:46:11;101511.31;;;9.20;32.35
38452;BME280;24231;52.514;13.438;2023-04-07T09:48:39;101508.45;;;9.10;32.64
38452;BME280;24231;52.514;13.438;2023-04-07T09:51:08;101517.37;;;8.19;34.31
38452;BME280;24231;52.514;13.438;2023-04-07T09:53:44;101509.27;;;8.84;33.41
38452;BME280;24231;52.514;13.438;2023-04-07T09:56:12;101509.99;;;8.85;32.97
38452;BME280;24231;52.514;13.438;2023-04-07T09:58:40;101512.18;;;8.93;33.39
38452;BME280;24231;52.514;13.438;2023-04-07T10:01:08;101518.12;;;8.23;34.15
38452;BME280;24231;52.514;13.438;2023-04-07T10:03:35;101513.36;;;9.07;33.15
38452;BME280;24231;52.514;13.438;2023-04-07T10:06:04;101510.64;;;9.00;32.83
38452;BME280;24231;52.514;13.438;2023-04-07T10:08:33;101508.98;;;9.45;32.57
38452;BME280;24231;52.514;13.438;2023-04-07T10:11:01;101515.52;;;9.23;33.20
38452;BME280;24231;52.514;13.438;2023-04-07T10:13:29;101515.28;;;9.10;33.92
38452;BME280;24231;52.514;13.438;2023-04-07T10:15:58;101514.89;;;9.04;34.29
38452;BME280;24231;52.514;13.438;2023-04-07T10:18:28;101514.64;;;9.10;34.32
38452;BME280;24231;52.514;13.438;2023-04-07T10:20:56;101512.65;;;9.68;33.55
38452;BME280;24231;52.514;13.438;2023-04-07T10:23:28;101510.15;;;9.55;33.76
38452;BME280;24231;52.514;13.438;2023-04-07T10:25:58;101508.10;;;9.63;33.66
38452;BME280;24231;52.514;13.438;2023-04-07T10:28:27;101509.40;;;9.50;34.14
38452;BME280;24231;52.514;13.438;2023-04-07T10:30:57;101507.89;;;10.17;32.90
38452;BME280;24231;52.514;13.438;2023-04-07T10:33:56;101509.56;;;10.45;32.51
38452;BME280;24231;52.514;13.438;2023-04-07T10:36:23;101509.31;;;10.27;33.23
38452;BME280;24231;52.514;13.438;2023-04-07T10:39:22;101512.80;;;9.79;34.34
38452;BME280;24231;52.514;13.438;2023-04-07T10:41:50;101517.14;;;8.95;36.47
38452;BME280;24231;52.514;13.438;2023-04-07T10:44:49;101510.37;;;9.42;35.69
38452;BME280;24231;52.514;13.438;2023-04-07T10:47:17;101513.69;;;9.24;36.75
38452;BME280;24231;52.514;13.438;2023-04-07T10:52:21;101517.51;;;8.32;40.21
38452;BME280;24231;52.514;13.438;2023-04-07T10:55:28;101515.24;;;7.82;41.28
38452;BME280;24231;52.514;13.438;2023-04-07T10:58:28;101512.18;;;7.92;42.84
38452;BME280;24231;52.514;13.438;2023-04-07T11:01:27;101513.15;;;8.57;42.09
38452;BME280;24231;52.514;13.438;2023-04-07T11:03:59;101511.83;;;8.74;44.41
38452;BME280;24231;52.514;13.438;2023-04-07T11:06:26;101509.86;;;8.27;46.58
38452;BME280;24231;52.514;13.438;2023-04-07T11:08:53;101514.60;;;8.56;47.39
38452;BME280;24231;52.514;13.438;2023-04-07T11:11:39;101510.36;;;7.52;51.03
38452;BME280;24231;52.514;13.438;2023-04-07T11:14:06;101513.74;;;8.56;49.40
38452;BME280;24231;52.514;13.438;2023-04-07T11:16:36;101505.29;;;7.48;52.37
38452;BME280;24231;52.514;13.438;2023-04-07T11:19:04;101509.29;;;8.41;50.20
38452;BME280;24231;52.514;13.438;2023-04-07T11:21:31;101500.54;;;8.94;48.95
38452;BME280;24231;52.514;13.438;2023-04-07T11:23:58;101498.88;;;9.02;49.00
38452;BME280;24231;52.514;13.438;2023-04-07T11:26:26;101497.88;;;8.95;50.76
38452;BME280;24231;52.514;13.438;2023-04-07T11:28:54;101503.19;;;8.71;51.59
38452;BME280;24231;52.514;13.438;2023-04-07T11:31:21;101505.67;;;8.47;53.70
38452;BME280;24231;52.514;13.438;2023-04-07T11:33:52;101509.05;;;8.05;55.53
38452;BME280;24231;52.514;13.438;2023-04-07T11:36:26;101508.91;;;8.33;55.08
38452;BME280;24231;52.514;13.438;2023-04-07T11:38:53;101511.78;;;8.07;57.44
38452;BME280;24231;52.514;13.438;2023-04-07T11:41:21;101509.47;;;8.58;56.20
38452;BME280;24231;52.514;13.438;2023-04-07T11:43:48;101511.57;;;8.73;55.84
38452;BME280;24231;52.514;13.438;2023-04-07T11:46:17;101508.34;;;8.63;54.84
38452;BME280;24231;52.514;13.438;2023-04-07T11:48:45;101499.95;;;8.95;53.93
38452;BME280;24231;52.514;13.438;2023-04-07T11:51:16;101509.60;;;8.45;56.11
38452;BME280;24231;52.514;13.438;2023-04-07T11:53:43;101506.75;;;8.16;57.23
38452;BME280;24231;52.514;13.438;2023-04-07T11:56:14;101505.84;;;8.38;57.76
38452;BME280;24231;52.514;13.438;2023-04-07T11:58:46;101501.57;;;8.79;55.20
38452;BME280;24231;52.514;13.438;2023-04-07T12:01:13;101505.21;;;7.92;57.09
38452;BME280;24231;52.514;13.438;2023-04-07T12:03:54;101504.31;;;8.57;55.69
38452;BME280;24231;52.514;13.438;2023-04-07T12:06:26;101496.74;;;8.89;55.84
38452;BME280;24231;52.514;13.438;2023-04-07T12:08:53;101497.08;;;8.90;55.28
38452;BME280;24231;52.514;13.438;2023-04-07T12:11:20;101496.92;;;9.24;54.49
38452;BME280;24231;52.514;13.438;2023-04-07T12:13:47;101494.94;;;9.04;56.06
38452;BME280;24231;52.514;13.438;2023-04-07T12:16:14;101496.65;;;8.96;55.76
38452;BME280;24231;52.514;13.438;2023-04-07T12:18:42;101506.96;;;8.51;56.33
38452;BME280;24231;52.514;13.438;2023-04-07T12:21:09;101500.35;;;8.97;55.36
38452;BME280;24231;52.514;13.438;2023-04-07T12:23:36;101502.50;;;9.23;55.12
38452;BME280;24231;52.514;13.438;2023-04-07T12:26:04;101498.42;;;9.34;55.43
38452;BME280;24231;52.514;13.438;2023-04-07T12:28:31;101504.03;;;8.45;58.84
38452;BME280;24231;52.514;13.438;2023-04-07T12:30:58;101508.60;;;8.39;59.07
38452;BME280;24231;52.514;13.438;2023-04-07T12:33:26;101504.73;;;8.65;58.14
38452;BME280;24231;52.514;13.438;2023-04-07T12:35:53;101499.26;;;8.79;56.78
38452;BME280;24231;52.514;13.438;2023-04-07T12:38:22;101501.86;;;8.91;56.09
38452;BME280;24231;52.514;13.438;2023-04-07T12:40:49;101494.21;;;9.43;54.74
38452;BME280;24231;52.514;13.438;2023-04-07T12:43:16;101496.42;;;9.41;55.17
38452;BME280;24231;52.514;13.438;2023-04-07T12:45:43;101495.13;;;9.48;54.33
38452;BME280;24231;52.514;13.438;2023-04-07T12:48:12;101496.83;;;9.52;54.74
38452;BME280;24231;52.514;13.438;2023-04-07T12:51:15;101501.30;;;8.35;57.88
38452;BME280;24231;52.514;13.438;2023-04-07T12:53:42;101492.55;;;9.05;54.19
38452;BME280;24231;52.514;13.438;2023-04-07T12:59:14;101499.66;;;8.50;56.91
38452;BME280;24231;52.514;13.438;2023-04-07T13:01:56;101492.44;;;8.70;56.38
38452;BME280;24231;52.514;13.438;2023-04-07T13:04:23;101488.96;;;9.56;53.65
38452;BME280;24231;52.514;13.438;2023-04-07T13:06:50;101489.24;;;9.09;54.11